sensor_id;sensor_type;location;lat;lon;timestamp;pressure;altitude;pressure_sealevel;temperature;humidity
22283;BME280;11310;51.528;21.204;2024-01-27T00:02:09;99745.91;;;4.95;100.00
22283;BME280;11310;51.528;21.204;2024-01-27T00:04:39;99744.94;;;4.99;100.00
22283;BME280;11310;51.528;21.204;2024-01-27T00:07:07;99760.34;;;5.05;100.00
22283;BME280;11310;51.528;21.204;2024-01-27T00:09:40;99767.13;;;5.10;100.00
22283;BME280;11310;51.528;21.204;2024-01-27T00:12:08;99772.09;;;5.18;100.00
22283;BME280;11310;51.528;21.204;2024-01-27T00:14:38;99780.50;;;5.27;100.00
22283;BME280;11310;51.528;21.204;2024-01-27T00:17:06;99784.81;;;5.28;100.00
22283;BME280;11310;51.528;21.204;2024-01-27T00:19:36;99790.72;;;5.33;100.00
22283;BME280;11310;51.528;21.204;2024-01-27T00:22:08;99797.59;;;5.36;100.00
22283;BME280;11310;51.528;21.204;2024-01-27T00:24:38;99807.97;;;5.36;100.00
22283;BME280;11310;51.528;21.204;2024-01-27T00:27:06;99814.06;;;5.36;100.00
22283;BME280;11310;51.528;21.204;2024-01-27T00:29:34;99819.28;;;5.35;100.00
22283;BME280;11310;51.528;21.204;2024-01-27T00:32:03;99827.16;;;5.32;100.00
22283;BME280;11310;51.528;21.204;2024-01-27T00:34:32;99841.16;;;5.28;100.00
22283;BME280;11310;51.528;21.204;2024-01-27T00:36:59;99841.16;;;5.28;100.00
22283;BME280;11310;51.528;21.204;2024-01-27T00:39:27;99846.34;;;5.28;100.00
22283;BME280;11310;51.528;21.204;2024-01-27T00:41:59;99855.94;;;5.26;100.00
22283;BME280;11310;51.528;21.204;2024-01-27T00:44:28;99865.50;;;5.25;100.00
22283;BME280;11310;51.528;21.204;2024-01-27T00:46:56;99862.13;;;5.22;100.00
22283;BME280;11310;51.528;21.204;2024-01-27T00:49:24;99857.91;;;5.18;100.00
22283;BME280;11310;51.528;21.204;2024-01-27T00:51:53;99874.41;;;5.17;100.00
22283;BME280;11310;51.528;21.204;2024-01-27T00:54:21;99863.28;;;5.12;100.00
22283;BME280;11310;51.528;21.204;2024-01-27T00:56:52;99867.66;;;5.10;100.00
22283;BME280;11310;51.528;21.204;2024-01-27T00:59:22;99887.59;;;5.09;100.00
22283;BME280;11310;51.528;21.204;2024-01-27T01:01:50;99891.13;;;5.07;100.00
22283;BME280;11310;51.528;21.204;2024-01-27T01:04:21;99886.00;;;5.04;100.00
22283;BME280;11310;51.528;21.204;2024-01-27T01:06:49;99886.88;;;5.04;100.00
22283;BME280;11310;51.528;21.204;2024-01-27T01:09:18;99897.31;;;5.03;100.00
22283;BME280;11310;51.528;21.204;2024-01-27T01:11:46;99899.88;;;5.04;100.00
22283;BME280;11310;51.528;21.204;2024-01-27T01:14:15;99909.41;;;5.04;100.00
22283;BME280;11310;51.528;21.204;2024-01-27T01:16:45;99909.44;;;5.02;100.00
22283;BME280;11310;51.528;21.204;2024-01-27T01:19:13;99907.78;;;5.00;100.00
22283;BME280;11310;51.528;21.204;2024-01-27T01:21:42;99910.34;;;5.01;100.00
22283;BME280;11310;51.528;21.204;2024-01-27T01:24:11;99925.16;;;4.98;100.00
22283;BME280;11310;51.528;21.204;2024-01-27T01:26:39;99931.38;;;4.92;100.00
22283;BME280;11310;51.528;21.204;2024-01-27T01:29:07;99922.84;;;4.86;100.00
22283;BME280;11310;51.528;21.204;2024-01-27T01:31:41;99926.28;;;4.88;100.00
22283;BME280;11310;51.528;21.204;2024-01-27T01:34:10;99940.13;;;4.88;100.00
22283;BME280;11310;51.528;21.204;2024-01-27T01:36:39;99944.56;;;4.85;100.00
22283;BME280;11310;51.528;21.204;2024-01-27T01:39:07;99936.00;;;4.80;100.00
22283;BME280;11310;51.528;21.204;2024-01-27T01:41:35;99953.25;;;4.84;100.00
22283;BME280;11310;51.528;21.204;2024-01-27T01:44:04;99947.22;;;4.82;100.00
22283;BME280;11310;51.528;21.204;2024-01-27T01:46:33;99951.63;;;4.78;100.00
22283;BME280;11310;51.528;21.204;2024-01-27T01:49:01;99956.16;;;4.70;100.00
22283;BME280;11310;51.528;21.204;2024-01-27T01:51:31;99962.28;;;4.68;100.00
22283;BME280;11310;51.528;21.204;2024-01-27T01:53:59;99963.22;;;4.64;100.00
22283;BME280;11310;51.528;21.204;2024-01-27T01:56:28;99974.63;;;4.60;100.00
22283;BME280;11310;51.528;21.204;2024-01-27T01:58:56;99971.16;;;4.59;100.00
22283;BME280;11310;51.528;21.204;2024-01-27T02:01:26;99972.88;;;4.59;100.00
22283;BME280;11310;51.528;21.204;2024-01-27T02:03:55;99966.91;;;4.55;100.00
22283;BME280;11310;51.528;21.204;2024-01-27T02:06:24;99979.28;;;4.44;100.00
22283;BME280;11310;51.528;21.204;2024-01-27T02:08:54;99991.56;;;4.38;100.00
22283;BME280;11310;51.528;21.204;2024-01-27T02:11:22;99997.69;;;4.34;100.00
22283;BME280;11310;51.528;21.204;2024-01-27T02:13:50;99998.53;;;4.34;100.00
22283;BME280;11310;51.528;21.204;2024-01-27T02:16:19;100003.81;;;4.31;100.00
22283;BME280;11310;51.528;21.204;2024-01-27T02:18:50;100009.94;;;4.27;100.00
22283;BME280;11310;51.528;21.204;2024-01-27T02:21:19;100004.72;;;4.29;100.00
22283;BME280;11310;51.528;21.204;2024-01-27T02:23:47;100015.03;;;4.32;100.00
22283;BME280;11310;51.528;21.204;2024-01-27T02:26:19;100009.94;;;4.29;100.00
22283;BME280;11310;51.528;21.204;2024-01-27T02:28:47;100010.81;;;4.28;100.00
22283;BME280;11310;51.528;21.204;2024-01-27T02:31:16;100009.94;;;4.29;100.00
22283;BME280;11310;51.528;21.204;2024-01-27T02:33:44;100015.94;;;4.31;100.00
22283;BME280;11310;51.528;21.204;2024-01-27T02:36:13;100008.97;;;4.33;100.00
22283;BME280;11310;51.528;21.204;2024-01-27T02:38:41;100018.38;;;4.37;100.00
22283;BME280;11310;51.528;21.204;2024-01-27T02:41:10;100025.16;;;4.44;100.00
22283;BME280;11310;51.528;21.204;2024-01-27T02:43:40;100018.19;;;4.46;100.00
22283;BME280;11310;51.528;21.204;2024-01-27T02:46:12;100028.53;;;4.49;100.00
22283;BME280;11310;51.528;21.204;2024-01-27T02:48:42;100028.53;;;4.49;100.00
22283;BME280;11310;51.528;21.204;2024-01-27T02:51:11;100033.66;;;4.52;100.00
22283;BME280;11310;51.528;21.204;2024-01-27T02:53:40;100025.84;;;4.53;100.00
22283;BME280;11310;51.528;21.204;2024-01-27T02:56:08;100037.00;;;4.57;100.00
22283;BME280;11310;51.528;21.204;2024-01-27T02:58:37;100036.97;;;4.58;100.00
22283;BME280;11310;51.528;21.204;2024-01-27T03:01:08;100035.22;;;4.59;100.00
22283;BME280;11310;51.528;21.204;2024-01-27T03:03:37;100041.25;;;4.61;100.00
22283;BME280;11310;51.528;21.204;2024-01-27T03:06:05;100042.16;;;4.60;100.00
22283;BME280;11310;51.528;21.204;2024-01-27T03:08:33;100047.34;;;4.60;100.00
22283;BME280;11310;51.528;21.204;2024-01-27T03:11:02;100042.16;;;4.60;100.00
22283;BME280;11310;51.528;21.204;2024-01-27T03:13:30;100054.25;;;4.61;100.00
22283;BME280;11310;51.528;21.204;2024-01-27T03:15:58;100056.00;;;4.59;100.00
22283;BME280;11310;51.528;21.204;2024-01-27T03:18:28;100066.38;;;4.60;100.00
22283;BME280;11310;51.528;21.204;2024-01-27T03:20:56;100069.00;;;4.59;100.00
22283;BME280;11310;51.528;21.204;2024-01-27T03:23:24;100060.34;;;4.58;100.00
22283;BME280;11310;51.528;21.204;2024-01-27T03:25:52;100063.78;;;4.59;100.00
22283;BME280;11310;51.528;21.204;2024-01-27T03:28:21;100062.94;;;4.60;100.00
22283;BME280;11310;51.528;21.204;2024-01-27T03:30:51;100074.19;;;4.59;100.00
22283;BME280;11310;51.528;21.204;2024-01-27T03:33:19;100074.19;;;4.59;100.00
22283;BME280;11310;51.528;21.204;2024-01-27T03:35:48;100075.97;;;4.57;100.00
22283;BME280;11310;51.528;21.204;2024-01-27T03:38:17;100073.38;;;4.57;100.00
22283;BME280;11310;51.528;21.204;2024-01-27T03:40:46;100079.50;;;4.54;100.00
22283;BME280;11310;51.528;21.204;2024-01-27T03:43:16;100077.03;;;4.48;100.00
22283;BME280;11310;51.528;21.204;2024-01-27T03:45:47;100076.19;;;4.46;100.00
22283;BME280;11310;51.528;21.204;2024-01-27T03:48:15;100079.72;;;4.44;100.00
22283;BME280;11310;51.528;21.204;2024-01-27T03:50:44;100080.59;;;4.43;100.00
22283;BME280;11310;51.528;21.204;2024-01-27T03:53:14;100079.00;;;4.36;100.00
22283;BME280;11310;51.528;21.204;2024-01-27T03:55:42;100076.50;;;4.33;100.00
22283;BME280;11310;51.528;21.204;2024-01-27T03:58:10;100082.63;;;4.29;100.00
22283;BME280;11310;51.528;21.204;2024-01-27T04:00:38;100087.81;;;4.29;100.00
22283;BME280;11310;51.528;21.204;2024-01-27T04:03:11;100083.50;;;4.28;100.00
22283;BME280;11310;51.528;21.204;2024-01-27T04:05:39;100086.13;;;4.28;100.00
22283;BME280;11310;51.528;21.204;2024-01-27T04:08:08;100094.72;;;4.30;100.00
22283;BME280;11310;51.528;21.204;2024-01-27T04:10:38;100094.72;;;4.30;100.00
22283;BME280;11310;51.528;21.204;2024-01-27T04:13:06;100095.50;;;4.33;100.00
22283;BME280;11310;51.528;21.204;2024-01-27T04:15:34;100104.16;;;4.34;100.00
22283;BME280;11310;51.528;21.204;2024-01-27T04:18:06;100105.00;;;4.34;100.00
22283;BME280;11310;51.528;21.204;2024-01-27T04:20:37;100111.00;;;4.38;100.00
22283;BME280;11310;51.528;21.204;2024-01-27T04:23:06;100118.72;;;4.41;100.00
22283;BME280;11310;51.528;21.204;2024-01-27T04:25:34;100116.16;;;4.39;100.00
22283;BME280;11310;51.528;21.204;2024-01-27T04:28:04;100119.66;;;4.37;100.00
22283;BME280;11310;51.528;21.204;2024-01-27T04:30:32;100122.16;;;4.43;100.00
22283;BME280;11310;51.528;21.204;2024-01-27T04:33:04;100115.19;;;4.43;100.00
22283;BME280;11310;51.528;21.204;2024-01-27T04:35:35;100125.56;;;4.45;100.00
22283;BME280;11310;51.528;21.204;2024-01-27T04:38:03;100126.44;;;4.45;100.00
22283;BME280;11310;51.528;21.204;2024-01-27T04:40:32;100113.50;;;4.42;100.00
22283;BME280;11310;51.528;21.204;2024-01-27T04:43:03;100129.03;;;4.44;100.00
22283;BME280;11310;51.528;21.204;2024-01-27T04:45:32;100133.31;;;4.46;100.00
22283;BME280;11310;51.528;21.204;2024-01-27T04:48:00;100132.44;;;4.47;100.00
22283;BME280;11310;51.528;21.204;2024-01-27T04:50:29;100134.22;;;4.45;100.00
22283;BME280;11310;51.528;21.204;2024-01-27T04:52:57;100129.00;;;4.47;100.00
22283;BME280;11310;51.528;21.204;2024-01-27T04:55:25;100125.53;;;4.46;100.00
22283;BME280;11310;51.528;21.204;2024-01-27T04:57:54;100125.56;;;4.45;100.00
22283;BME280;11310;51.528;21.204;2024-01-27T05:00:23;100134.22;;;4.45;100.00
22283;BME280;11310;51.528;21.204;2024-01-27T05:02:53;100132.47;;;4.46;100.00
22283;BME280;11310;51.528;21.204;2024-01-27T05:05:22;100126.47;;;4.42;100.00
22283;BME280;11310;51.528;21.204;2024-01-27T05:07:50;100135.13;;;4.43;100.00
22283;BME280;11310;51.528;21.204;2024-01-27T05:10:20;100141.22;;;4.42;100.00
22283;BME280;11310;51.528;21.204;2024-01-27T05:12:52;100141.22;;;4.42;100.00
22283;BME280;11310;51.528;21.204;2024-01-27T05:15:23;100143.75;;;4.43;100.00
22283;BME280;11310;51.528;21.204;2024-01-27T05:17:52;100145.53;;;4.43;100.00
22283;BME280;11310;51.528;21.204;2024-01-27T05:20:21;100144.69;;;4.41;100.00
22283;BME280;11310;51.528;21.204;2024-01-27T05:22:49;100140.47;;;4.35;100.00
22283;BME280;11310;51.528;21.204;2024-01-27T05:25:19;100145.63;;;4.37;100.00
22283;BME280;11310;51.528;21.204;2024-01-27T05:27:50;100148.22;;;4.37;100.00
22283;BME280;11310;51.528;21.204;2024-01-27T05:30:19;100152.56;;;4.38;100.00
22283;BME280;11310;51.528;21.204;2024-01-27T05:32:51;100148.19;;;4.38;100.00
22283;BME280;11310;51.528;21.204;2024-01-27T05:35:20;100151.72;;;4.36;100.00
22283;BME280;11310;51.528;21.204;2024-01-27T05:37:48;100149.09;;;4.36;100.00
22283;BME280;11310;51.528;21.204;2024-01-27T05:40:17;100154.31;;;4.36;100.00
22283;BME280;11310;51.528;21.204;2024-01-27T05:42:45;100147.44;;;4.33;100.00
22283;BME280;11310;51.528;21.204;2024-01-27T05:45:13;100151.78;;;4.33;100.00
22283;BME280;11310;51.528;21.204;2024-01-27T05:47:42;100158.69;;;4.34;100.00
22283;BME280;11310;51.528;21.204;2024-01-27T05:50:11;100156.06;;;4.35;100.00
22283;BME280;11310;51.528;21.204;2024-01-27T05:52:39;100154.31;;;4.36;100.00
22283;BME280;11310;51.528;21.204;2024-01-27T05:55:10;100150.00;;;4.35;100.00
22283;BME280;11310;51.528;21.204;2024-01-27T05:57:39;100155.19;;;4.35;100.00
22283;BME280;11310;51.528;21.204;2024-01-27T06:00:09;100154.31;;;4.36;100.00
22283;BME280;11310;51.528;21.204;2024-01-27T06:02:38;100157.72;;;4.39;100.00
22283;BME280;11310;51.528;21.204;2024-01-27T06:05:06;100155.94;;;4.41;100.00
22283;BME280;11310;51.528;21.204;2024-01-27T06:07:38;100158.50;;;4.43;100.00
22283;BME280;11310;51.528;21.204;2024-01-27T06:10:08;100156.81;;;4.42;100.00
22283;BME280;11310;51.528;21.204;2024-01-27T06:12:37;100161.94;;;4.43;100.00
22283;BME280;11310;51.528;21.204;2024-01-27T06:15:06;100167.13;;;4.45;100.00
22283;BME280;11310;51.528;21.204;2024-01-27T06:17:36;100163.63;;;4.46;100.00
22283;BME280;11310;51.528;21.204;2024-01-27T06:20:06;100165.41;;;4.44;100.00
22283;BME280;11310;51.528;21.204;2024-01-27T06:22:35;100161.09;;;4.43;100.00
22283;BME280;11310;51.528;21.204;2024-01-27T06:25:05;100176.66;;;4.44;100.00
22283;BME280;11310;51.528;21.204;2024-01-27T06:27:35;100167.13;;;4.43;100.00
22283;BME280;11310;51.528;21.204;2024-01-27T06:30:05;100175.78;;;4.44;100.00
22283;BME280;11310;51.528;21.204;2024-01-27T06:32:34;100167.22;;;4.40;100.00
22283;BME280;11310;51.528;21.204;2024-01-27T06:35:03;100169.00;;;4.37;100.00
22283;BME280;11310;51.528;21.204;2024-01-27T06:37:32;100176.75;;;4.40;100.00
22283;BME280;11310;51.528;21.204;2024-01-27T06:40:06;100182.81;;;4.39;100.00
22283;BME280;11310;51.528;21.204;2024-01-27T06:42:36;100182.81;;;4.40;100.00
22283;BME280;11310;51.528;21.204;2024-01-27T06:45:05;100184.47;;;4.43;100.00
22283;BME280;11310;51.528;21.204;2024-01-27T06:47:35;100183.63;;;4.41;100.00
22283;BME280;11310;51.528;21.204;2024-01-27T06:50:07;100187.97;;;4.42;100.00
22283;BME280;11310;51.528;21.204;2024-01-27T06:52:35;100188.00;;;4.40;100.00
22283;BME280;11310;51.528;21.204;2024-01-27T06:55:06;100200.09;;;4.40;100.00
22283;BME280;11310;51.528;21.204;2024-01-27T06:57:37;100201.94;;;4.35;100.00
22283;BME280;11310;51.528;21.204;2024-01-27T07:00:06;100207.16;;;4.32;100.00
22283;BME280;11310;51.528;21.204;2024-01-27T07:02:37;100209.88;;;4.27;100.00
22283;BME280;11310;51.528;21.204;2024-01-27T07:05:06;100207.34;;;4.23;100.00
22283;BME280;11310;51.528;21.204;2024-01-27T07:07:35;100212.59;;;4.20;100.00
22283;BME280;11310;51.528;21.204;2024-01-27T07:10:07;100216.16;;;4.13;100.00
22283;BME280;11310;51.528;21.204;2024-01-27T07:12:36;100208.53;;;4.04;100.00
22283;BME280;11310;51.528;21.204;2024-01-27T07:15:05;100207.75;;;3.99;100.00
22283;BME280;11310;51.528;21.204;2024-01-27T07:17:34;100211.34;;;3.92;100.00
22283;BME280;11310;51.528;21.204;2024-01-27T07:20:03;100216.50;;;3.93;100.00
22283;BME280;11310;51.528;21.204;2024-01-27T07:22:33;100219.16;;;3.90;100.00
22283;BME280;11310;51.528;21.204;2024-01-27T07:25:01;100220.88;;;3.90;100.00
22283;BME280;11310;51.528;21.204;2024-01-27T07:27:32;100226.06;;;3.90;100.00
22283;BME280;11310;51.528;21.204;2024-01-27T07:30:01;100214.00;;;3.87;100.00
22283;BME280;11310;51.528;21.204;2024-01-27T07:32:29;100216.59;;;3.89;100.00
22283;BME280;11310;51.528;21.204;2024-01-27T07:34:58;100223.56;;;3.85;100.00
22283;BME280;11310;51.528;21.204;2024-01-27T07:37:27;100221.00;;;3.84;100.00
22283;BME280;11310;51.528;21.204;2024-01-27T07:39:55;100215.81;;;3.84;100.00
22283;BME280;11310;51.528;21.204;2024-01-27T07:42:26;100209.81;;;3.80;100.00
22283;BME280;11310;51.528;21.204;2024-01-27T07:44:58;100227.16;;;3.77;100.00
22283;BME280;11310;51.528;21.204;2024-01-27T07:47:27;100222.81;;;3.77;100.00
22283;BME280;11310;51.528;21.204;2024-01-27T07:50:01;100207.25;;;3.79;100.00
22283;BME280;11310;51.528;21.204;2024-01-27T07:52:29;100216.78;;;3.77;100.00
22283;BME280;11310;51.528;21.204;2024-01-27T07:54:58;100221.97;;;3.77;100.00
22283;BME280;11310;51.528;21.204;2024-01-27T07:57:27;100215.06;;;3.76;100.00
22283;BME280;11310;51.528;21.204;2024-01-27T07:59:55;100223.72;;;3.76;100.00
22283;BME280;11310;51.528;21.204;2024-01-27T08:02:26;100226.31;;;3.76;100.00
22283;BME280;11310;51.528;21.204;2024-01-27T08:04:54;100225.44;;;3.76;100.00
22283;BME280;11310;51.528;21.204;2024-01-27T08:07:28;100227.16;;;3.77;100.00
22283;BME280;11310;51.528;21.204;2024-01-27T08:09:56;100225.44;;;3.77;100.00
22283;BME280;11310;51.528;21.204;2024-01-27T08:12:25;100237.56;;;3.75;100.00
22283;BME280;11310;51.528;21.204;2024-01-27T08:14:54;100233.25;;;3.74;100.00
22283;BME280;11310;51.528;21.204;2024-01-27T08:17:22;100234.94;;;3.77;100.00
22283;BME280;11310;51.528;21.204;2024-01-27T08:19:52;100224.53;;;3.78;100.00
22283;BME280;11310;51.528;21.204;2024-01-27T08:22:20;100234.03;;;3.79;100.00
22283;BME280;11310;51.528;21.204;2024-01-27T08:24:48;100237.50;;;3.80;100.00
22283;BME280;11310;51.528;21.204;2024-01-27T08:27:18;100228.81;;;3.81;100.00
22283;BME280;11310;51.528;21.204;2024-01-27T08:29:49;100241.75;;;3.84;100.00
22283;BME280;11310;51.528;21.204;2024-01-27T08:32:19;100251.25;;;3.85;100.00
22283;BME280;11310;51.528;21.204;2024-01-27T08:34:47;100243.47;;;3.85;100.00
22283;BME280;11310;51.528;21.204;2024-01-27T08:37:19;100254.69;;;3.87;100.00
22283;BME280;11310;51.528;21.204;2024-01-27T08:39:48;100252.94;;;3.86;100.00
22283;BME280;11310;51.528;21.204;2024-01-27T08:42:18;100254.69;;;3.87;100.00
22283;BME280;11310;51.528;21.204;2024-01-27T08:44:46;100260.69;;;3.90;100.00
22283;BME280;11310;51.528;21.204;2024-01-27T08:47:14;100258.91;;;3.92;100.00
22283;BME280;11310;51.528;21.204;2024-01-27T08:49:47;100257.16;;;3.94;100.00
22283;BME280;11310;51.528;21.204;2024-01-27T08:52:15;100255.41;;;3.93;100.00
22283;BME280;11310;51.528;21.204;2024-01-27T08:54:45;100259.75;;;3.96;100.00
22283;BME280;11310;51.528;21.204;2024-01-27T08:57:17;100263.19;;;3.95;100.00
22283;BME280;11310;51.528;21.204;2024-01-27T08:59:46;100259.78;;;3.93;100.00
22283;BME280;11310;51.528;21.204;2024-01-27T09:02:22;100252.00;;;3.91;100.00
22283;BME280;11310;51.528;21.204;2024-01-27T09:04:52;100252.03;;;3.88;100.00
22283;BME280;11310;51.528;21.204;2024-01-27T09:07:21;100260.72;;;3.87;100.00
22283;BME280;11310;51.528;21.204;2024-01-27T09:09:50;100266.78;;;3.86;100.00
22283;BME280;11310;51.528;21.204;2024-01-27T09:12:19;100272.88;;;3.84;100.00
22283;BME280;11310;51.528;21.204;2024-01-27T09:14:49;100268.63;;;3.80;100.00
22283;BME280;11310;51.528;21.204;2024-01-27T09:17:17;100266.91;;;3.79;100.00
22283;BME280;11310;51.528;21.204;2024-01-27T09:19:46;100261.78;;;3.73;100.00
22283;BME280;11310;51.528;21.204;2024-01-27T09:22:15;100260.94;;;3.74;100.00
22283;BME280;11310;51.528;21.204;2024-01-27T09:24:43;100263.56;;;3.71;100.00
22283;BME280;11310;51.528;21.204;2024-01-27T09:27:13;100261.78;;;3.73;100.00
22283;BME280;11310;51.528;21.204;2024-01-27T09:29:41;100265.22;;;3.78;100.00
22283;BME280;11310;51.528;21.204;2024-01-27T09:32:10;100262.53;;;3.82;100.00
22283;BME280;11310;51.528;21.204;2024-01-27T09:34:39;100264.19;;;3.88;100.00
22283;BME280;11310;51.528;21.204;2024-01-27T09:37:08;100266.78;;;3.88;100.00
22283;BME280;11310;51.528;21.204;2024-01-27T09:39:36;100278.75;;;3.95;100.00
22283;BME280;11310;51.528;21.204;2024-01-27T09:42:07;100277.84;;;3.97;100.00
22283;BME280;11310;51.528;21.204;2024-01-27T09:44:37;100286.53;;;3.96;100.00
22283;BME280;11310;51.528;21.204;2024-01-27T09:47:07;100290.00;;;3.95;100.00
22283;BME280;11310;51.528;21.204;2024-01-27T09:49:38;100287.44;;;3.92;100.00
22283;BME280;11310;51.528;21.204;2024-01-27T09:52:07;100283.19;;;3.88;100.00
22283;BME280;11310;51.528;21.204;2024-01-27T09:54:36;100294.50;;;3.84;100.00
22283;BME280;11310;51.528;21.204;2024-01-27T09:57:04;100287.59;;;3.82;100.00
22283;BME280;11310;51.528;21.204;2024-01-27T09:59:33;100297.16;;;3.81;100.00
22283;BME280;11310;51.528;21.204;2024-01-27T10:02:03;100297.16;;;3.80;100.00
22283;BME280;11310;51.528;21.204;2024-01-27T10:04:33;100291.16;;;3.78;100.00
22283;BME280;11310;51.528;21.204;2024-01-27T10:07:02;100298.09;;;3.73;100.00
22283;BME280;11310;51.528;21.204;2024-01-27T10:09:32;100310.22;;;3.75;100.00
22283;BME280;11310;51.528;21.204;2024-01-27T10:12:01;100311.06;;;3.76;100.00
22283;BME280;11310;51.528;21.204;2024-01-27T10:14:38;100309.34;;;3.73;100.00
22283;BME280;11310;51.528;21.204;2024-01-27T10:17:10;100317.16;;;3.72;100.00
22283;BME280;11310;51.528;21.204;2024-01-27T10:19:39;100311.97;;;3.72;100.00
22283;BME280;11310;51.528;21.204;2024-01-27T10:22:12;100319.72;;;3.73;100.00
22283;BME280;11310;51.528;21.204;2024-01-27T10:24:41;100310.25;;;3.71;100.00
22283;BME280;11310;51.528;21.204;2024-01-27T10:27:09;100314.56;;;3.70;100.00
22283;BME280;11310;51.528;21.204;2024-01-27T10:29:40;100314.66;;;3.67;100.00
22283;BME280;11310;51.528;21.204;2024-01-27T10:32:10;100315.53;;;3.65;100.00
22283;BME280;11310;51.528;21.204;2024-01-27T10:34:38;100307.81;;;3.60;100.00
22283;BME280;11310;51.528;21.204;2024-01-27T10:37:11;100316.47;;;3.59;100.00
22283;BME280;11310;51.528;21.204;2024-01-27T10:39:40;100319.06;;;3.61;100.00
22283;BME280;11310;51.528;21.204;2024-01-27T10:42:10;100320.72;;;3.65;100.00
22283;BME280;11310;51.528;21.204;2024-01-27T10:44:39;100309.47;;;3.67;100.00
22283;BME280;11310;51.528;21.204;2024-01-27T10:47:13;100320.59;;;3.74;100.00
22283;BME280;11310;51.528;21.204;2024-01-27T10:49:50;100331.78;;;3.77;100.00
22283;BME280;11310;51.528;21.204;2024-01-27T10:52:22;100334.31;;;3.82;100.00
22283;BME280;11310;51.528;21.204;2024-01-27T10:54:59;100323.88;;;3.85;100.00
22283;BME280;11310;51.528;21.204;2024-01-27T10:57:31;100335.97;;;3.86;100.00
22283;BME280;11310;51.528;21.204;2024-01-27T11:00:03;100337.72;;;3.85;100.00
22283;BME280;11310;51.528;21.204;2024-01-27T11:02:38;100335.13;;;3.87;100.00
22283;BME280;11310;51.528;21.204;2024-01-27T11:05:10;100333.38;;;3.86;100.00
22283;BME280;11310;51.528;21.204;2024-01-27T11:07:39;100341.13;;;3.89;100.00
22283;BME280;11310;51.528;21.204;2024-01-27T11:10:09;100335.94;;;3.89;100.00
22283;BME280;11310;51.528;21.204;2024-01-27T11:12:38;100353.25;;;3.88;100.00
22283;BME280;11310;51.528;21.204;2024-01-27T11:15:07;100358.47;;;3.87;100.00
22283;BME280;11310;51.528;21.204;2024-01-27T11:17:41;100360.19;;;3.88;100.00
22283;BME280;11310;51.528;21.204;2024-01-27T11:20:11;100355.84;;;3.88;100.00
22283;BME280;11310;51.528;21.204;2024-01-27T11:22:40;100360.97;;;3.94;100.00
22283;BME280;11310;51.528;21.204;2024-01-27T11:25:16;100366.97;;;3.98;100.00
22283;BME280;11310;51.528;21.204;2024-01-27T11:27:45;100370.38;;;4.00;100.00
22283;BME280;11310;51.528;21.204;2024-01-27T11:30:26;100363.44;;;4.02;100.00
22283;BME280;11310;51.528;21.204;2024-01-27T11:32:57;100368.56;;;4.05;100.00
22283;BME280;11310;51.528;21.204;2024-01-27T11:35:27;100369.41;;;4.08;100.00
22283;BME280;11310;51.528;21.204;2024-01-27T11:37:56;100377.19;;;4.10;100.00
22283;BME280;11310;51.528;21.204;2024-01-27T11:40:30;100383.19;;;4.12;100.00
22283;BME280;11310;51.528;21.204;2024-01-27T11:42:59;100380.59;;;4.12;100.00
22283;BME280;11310;51.528;21.204;2024-01-27T11:45:32;100390.97;;;4.12;100.00
22283;BME280;11310;51.528;21.204;2024-01-27T11:48:04;100385.81;;;4.09;100.00
22283;BME280;11310;51.528;21.204;2024-01-27T11:50:33;100395.34;;;4.10;100.00
22283;BME280;11310;51.528;21.204;2024-01-27T11:53:02;100396.19;;;4.09;100.00
22283;BME280;11310;51.528;21.204;2024-01-27T11:55:31;100398.81;;;4.09;100.00
22283;BME280;11310;51.528;21.204;2024-01-27T11:58:00;100409.16;;;4.10;100.00
22283;BME280;11310;51.528;21.204;2024-01-27T12:00:30;100409.19;;;4.09;100.00
22283;BME280;11310;51.528;21.204;2024-01-27T12:02:58;100410.06;;;4.08;100.00
22283;BME280;11310;51.528;21.204;2024-01-27T12:05:29;100418.72;;;4.10;100.00
22283;BME280;11310;51.528;21.204;2024-01-27T12:07:58;100428.22;;;4.11;100.00
22283;BME280;11310;51.528;21.204;2024-01-27T12:10:27;100427.34;;;4.09;100.00
22283;BME280;11310;51.528;21.204;2024-01-27T12:12:59;100428.25;;;4.06;100.00
22283;BME280;11310;51.528;21.204;2024-01-27T12:15:28;100432.63;;;4.03;100.00
22283;BME280;11310;51.528;21.204;2024-01-27T12:17:57;100446.44;;;4.05;100.00
22283;BME280;11310;51.528;21.204;2024-01-27T12:20:26;100448.19;;;4.04;100.00
22283;BME280;11310;51.528;21.204;2024-01-27T12:23:03;100462.00;;;4.05;100.00
22283;BME280;11310;51.528;21.204;2024-01-27T12:25:35;100462.06;;;4.02;100.00
22283;BME280;11310;51.528;21.204;2024-01-27T12:28:04;100459.56;;;3.94;100.00
22283;BME280;11310;51.528;21.204;2024-01-27T12:30:36;100467.41;;;3.90;100.00
22283;BME280;11310;51.528;21.204;2024-01-27T12:33:09;100477.00;;;3.82;100.00
22283;BME280;11310;51.528;21.204;2024-01-27T12:35:38;100478.84;;;3.75;100.00
22283;BME280;11310;51.528;21.204;2024-01-27T12:38:09;100480.59;;;3.72;100.00
22283;BME280;11310;51.528;21.204;2024-01-27T12:40:39;100484.09;;;3.68;100.00
22283;BME280;11310;51.528;21.204;2024-01-27T12:43:08;100498.81;;;3.66;100.00
22283;BME280;11310;51.528;21.204;2024-01-27T12:45:37;100498.84;;;3.64;100.00
22283;BME280;11310;51.528;21.204;2024-01-27T12:48:06;100499.72;;;3.65;100.00
22283;BME280;11310;51.528;21.204;2024-01-27T12:50:35;100510.09;;;3.65;100.00
22283;BME280;11310;51.528;21.204;2024-01-27T12:53:03;100518.75;;;3.62;100.00
22283;BME280;11310;51.528;21.204;2024-01-27T12:55:33;100521.38;;;3.59;100.00